Flight Track Log - Related Links

Times and Time Zones

All times are in EDT time to prevent confusion due to time zone crossing. See the SWA2975 flight status page for this flight to view local times or setup timezone preferences in your user account.

Time Position Orientation Groundspeed Altitude Reporting Facility
EDT Latitude Longitude Course Direction KTS MPH feet Rate Location/Type
Mon 06:22:00 PM 39.9859 -105.4658 282° West  Level Estimated
Mon 06:22:09 PM 39.9540 -105.3660 282° West 354 407 20,100  Level FlightAware ADS-B
Mon 06:22:51 PM 39.9610 -105.4590 276° West 367 422 21,500 2,195 Climbing FlightAware ADS-B
Mon 06:23:31 PM 39.9660 -105.5490 274° West 368 423 23,100 1,650 Climbing FlightAware ADS-B
Mon 06:24:11 PM 39.9720 -105.6390 275° West 399 459 23,700 1,244 Climbing FlightAware ADS-B
Mon 06:24:53 PM 39.9730 -105.7410 271° West 410 472 24,800 1,610 Climbing FlightAware ADS-B
Mon 06:25:33 PM 39.9710 -105.8400 269° West 416 479 25,900 1,680 Climbing FlightAware ADS-B
Mon 06:26:33 PM 39.9780 -105.9800 274° West 421 484 27,600 2,040 Climbing FlightAware ADS-B
Mon 06:27:13 PM 39.9840 -106.0880 274° West 410 472 29,300 2,114 Climbing FlightAware ADS-B
Mon 06:28:01 PM 39.9900 -106.2100 274° West 407 468 30,700 1,705 Climbing FlightAware ADS-B
Mon 06:28:41 PM 39.9960 -106.3070 275° West 407 468 31,800 929 Climbing FlightAware ADS-B
Mon 06:29:25 PM 40.0010 -106.4140 274° West 403 464 32,000 143 Climbing FlightAware ADS-B
Mon 06:30:05 PM 40.0060 -106.5130 274° West 403 464 32,000  Level FlightAware ADS-B
Mon 06:30:45 PM 40.0110 -106.6090 274° West 401 461 32,000  Level FlightAware ADS-B
Mon 06:31:29 PM 40.0160 -106.7130 274° West 400 460 32,000  Level FlightAware ADS-B
Mon 06:32:09 PM 40.0200 -106.8100 273° West 398 458 32,000  Level FlightAware ADS-B
Mon 06:32:53 PM 40.0250 -106.9160 274° West 400 460 32,000  Level FlightAware ADS-B
Mon 06:33:47 PM 40.0310 -107.0460 273° West 404 465 32,000  Level FlightAware ADS-B
Mon 06:34:27 PM 40.0350 -107.1370 273° West 403 464 32,000  Level FlightAware ADS-B
Mon 06:35:12 PM 40.0400 -107.2490 273° West 398 458 32,000  Level FlightAware ADS-B
Mon 06:35:53 PM 40.0440 -107.3390 273° West 396 456 32,000  Level FlightAware ADS-B
Mon 06:36:32 PM 40.0480 -107.4410 273° West 396 456 32,000  Level FlightAware ADS-B
Mon 06:37:12 PM 40.0520 -107.5360 273° West 394 453 32,000  Level FlightAware ADS-B
Mon 06:37:53 PM 40.0560 -107.6250 273° West 394 453 32,000  Level FlightAware ADS-B
Mon 06:38:38 PM 40.0600 -107.7410 273° West 394 453 32,000  Level FlightAware ADS-B
Mon 06:39:26 PM 40.0650 -107.8550 273° West 397 457 32,000  Level FlightAware ADS-B
Mon 06:40:06 PM 40.0680 -107.9500 272° West 398 458 32,000  Level FlightAware ADS-B
Mon 06:40:46 PM 40.0730 -108.0460 274° West 398 458 32,000  Level FlightAware ADS-B
Mon 06:41:29 PM 40.0780 -108.1490 274° West 399 459 32,000  Level FlightAware ADS-B
Mon 06:42:11 PM 40.0820 -108.2510 273° West 399 459 32,000  Level FlightAware ADS-B
Mon 06:42:53 PM 40.0860 -108.3460 273° West 399 459 32,000  Level FlightAware ADS-B
Mon 06:43:32 PM 40.0900 -108.4440 273° West 401 461 32,000  Level FlightAware ADS-B
Mon 06:44:17 PM 40.0950 -108.5540 273° West 403 464 32,000  Level FlightAware ADS-B
Mon 06:44:57 PM 40.0990 -108.6510 273° West 404 465 32,000  Level FlightAware ADS-B
Mon 06:45:39 PM 40.1030 -108.7540 273° West 407 468 32,000  Level FlightAware ADS-B
Mon 06:46:25 PM 40.1080 -108.8680 273° West 409 471 32,000  Level FlightAware ADS-B
Mon 06:47:05 PM 40.1110 -108.9640 272° West 410 472 32,000  Level FlightAware ADS-B
Mon 06:47:45 PM 40.1150 -109.0640 273° West 409 471 32,000 -146 Level FlightAware ADS-B
Mon 06:48:27 PM 40.1190 -109.1670 273° West 409 471 31,800 -621 Descending FlightAware ADS-B
Mon 06:49:12 PM 40.1230 -109.2780 273° West 409 471 31,100 -963 Descending FlightAware ADS-B
Mon 06:49:48 PM 40.1250 -109.3580 272° West 402 463 30,500 -815 Descending FlightAware ADS-B
Mon 06:50:33 PM 40.1290 -109.4750 273° West 400 460 30,000 -349 Descending FlightAware ADS-B
Mon 06:51:14 PM 40.1320 -109.5640 273° West 398 458 30,000  Level FlightAware ADS-B
Mon 06:51:57 PM 40.1360 -109.6680 273° West 397 457 30,000  Level FlightAware ADS-B
Mon 06:52:43 PM 40.1390 -109.7810 272° West 400 460 30,000  Level FlightAware ADS-B
Mon 06:53:20 PM 40.1420 -109.8780 272° West 401 461 30,000  Level FlightAware ADS-B
Mon 06:54:05 PM 40.1450 -109.9840 272° West 401 461 30,000  Level FlightAware ADS-B
Mon 06:54:46 PM 40.1480 -110.0790 272° West 403 464 30,000  Level FlightAware ADS-B
Mon 06:55:25 PM 40.1490 -110.1720 271° West 404 465 30,000  Level FlightAware ADS-B
Mon 06:56:14 PM 40.1480 -110.3010 269° West 408 470 30,000  Level FlightAware ADS-B
Mon 06:57:10 PM 40.1460 -110.4380 269° West 411 473 30,000  Level FlightAware ADS-B
Mon 06:58:07 PM 40.1450 -110.5640 269° West 412 474 30,000  Level FlightAware ADS-B
Mon 06:58:53 PM 40.1440 -110.6960 269° West 414 476 30,000  Level FlightAware ADS-B
Mon 06:59:43 PM 40.1420 -110.8000 269° West 414 476 30,000 -767 Level FlightAware ADS-B
Mon 07:00:19 PM 40.1410 -110.9080 269° West 409 471 28,900 -1,390 Descending FlightAware ADS-B
Mon 07:01:05 PM 40.1400 -111.0110 269° West 406 467 28,100 -516 Descending FlightAware ADS-B
Mon 07:01:52 PM 40.1380 -111.1090 269° West 406 467 28,100  Level FlightAware ADS-B
Mon 07:02:28 PM 40.1370 -111.1840 269° West 406 467 28,100  Level FlightAware ADS-B
Mon 07:03:16 PM 40.1360 -111.2840 269° West 406 467 28,100  Level FlightAware ADS-B
Mon 07:03:52 PM 40.1350 -111.3600 269° West 406 467 28,100 -2,405 Level FlightAware ADS-B
Mon 07:07:13 PM 40.2380 -111.8390 286° West 381 438 18,600 -2,700 Descending FlightAware ADS-B
Mon 07:07:52 PM 40.2690 -111.9200 297° West 384 442 17,300 -1,235 Descending FlightAware ADS-B
Mon 07:08:21 PM 40.3070 -111.9640 319° Northwest 394 453 17,200 -1,068 Descending FlightAware ADS-B
Mon 07:09:05 PM 40.3760 -112.0170 330° Northwest 388 447 16,000 -1,500 Descending FlightAware ADS-B
Mon 07:09:49 PM 40.4490 -112.0540 339° North 375 432 15,000 -1,519 Descending FlightAware ADS-B
Mon 07:10:24 PM 40.5100 -112.0610 355° North 367 422 14,000 -1,723 Descending FlightAware ADS-B
Mon 07:11:23 PM 40.6070 -112.0750 354° North 355 409 12,300 -1,086 Descending FlightAware ADS-B
Mon 07:12:09 PM 40.6770 -112.0830 355° North 320 368 12,100 -279 Descending FlightAware ADS-B
Mon 07:12:49 PM 40.7340 -112.0890 355° North 282 325 11,900 -659 Descending FlightAware ADS-B
Mon 07:13:31 PM 40.7870 -112.0960 354° North 269 310 11,200 -867 Descending FlightAware ADS-B
Mon 07:14:12 PM 40.8380 -112.1010 356° North 261 300 10,700 -1,457 Descending FlightAware ADS-B
Mon 07:14:41 PM 40.8730 -112.1040 356° North 269 310 9,500 -2,172 Descending FlightAware ADS-B
Mon 07:15:10 PM 40.9070 -112.0970 North 264 304 8,600 -1,650 Descending FlightAware ADS-B
Mon 07:15:21 PM 40.9170 -112.0870 37° Northeast 259 298 8,400 -769 Descending FlightAware ADS-B
Mon 07:15:49 PM 40.9350 -112.0520 56° Northeast 222 255 8,100 -1,174 Descending FlightAware ADS-B
Mon 07:16:07 PM 40.9380 -112.0290 80° East 210 242 7,500 -1,500 Descending FlightAware ADS-B
Mon 07:16:33 PM 40.9370 -111.9970 92° East 186 214 7,000 -1,385 Descending FlightAware ADS-B
Mon 07:16:46 PM 40.9300 -111.9880 136° Southeast 173 199 6,600 -1,448 Descending FlightAware ADS-B
Mon 07:17:02 PM 40.9180 -111.9850 169° South 157 181 6,300 -769 Descending FlightAware ADS-B
Mon 07:17:25 PM 40.9020 -111.9870 185° South 153 176 6,100 -585 Descending FlightAware ADS-B
Mon 07:17:43 PM 40.8890 -111.9860 177° South 158 182 5,900 -766 Descending FlightAware ADS-B
Mon 07:18:12 PM 40.8660 -111.9840 176° South 160 184 5,500 -750 Descending FlightAware ADS-B
Mon 07:18:23 PM 40.8590 -111.9830 174° South 159 183 5,400 -732 Descending FlightAware ADS-B
Mon 07:18:53 PM 40.8370 -111.9800 174° South 152 175 5,000 -857 Descending FlightAware ADS-B
Mon 07:19:19 PM 40.8190 -111.9780 175° South 158 182 4,600 -818 Descending FlightAware ADS-B
Mon 07:19:37 PM 40.8050 -111.9770 177° South 161 185 4,400 -279 Descending FlightAware ADS-B
Mon 07:20:02 PM 40.7890 -111.9750 175° South 161 185 4,400  Level FlightAware ADS-B
Mon 07:27:00 PM 40.7833 -111.9667 North  Level FlightAware Approximate

Login

Don't have an account? Register now (free) for customized features, flight alerts, and more!